Terminal Aerodrome Forecast
Issued by NWS

Home | Current Version | Previous Version | Text Only | Print | Product List | Glossary On
Versions: 1 2 3 4 5 6 7 8 9 10 11 12 13 14 15 16 17 18 19 20 21 22 23 24 25 26 27 28 29 30 31 32
000
FTAK31 PAFA 220415 AAA
TAFABT
TAF AMD
PABT 220415Z 2204/2224 VRB04KT P6SM FEW040 SCT050 BKN070
     FM221000 00000KT P6SM BCFG SCT070
     FM221700 VRB04KT P6SM SCT070=

USA.gov is the U.S. government's official web portal to all federal, state and local government web resources and services.